createdAt,value
2023-05-24T00:01:29.523Z,99481.00
2023-05-24T00:04:01.115Z,99501.19
2023-05-24T00:06:28.593Z,99481.69
2023-05-24T00:08:56.698Z,99471.47
2023-05-24T00:11:24.245Z,99470.00
2023-05-24T00:13:51.672Z,99495.69
2023-05-24T00:16:19.285Z,99477.00
2023-05-24T00:18:48.472Z,99481.94
2023-05-24T00:21:16.334Z,99464.75
2023-05-24T00:23:44.464Z,99476.22
2023-05-24T00:26:12.196Z,99476.50
2023-05-24T00:28:39.704Z,99495.94
2023-05-24T00:31:08.565Z,99488.97
2023-05-24T00:33:36.097Z,99465.00
2023-05-24T00:36:03.621Z,99454.31
2023-05-24T00:38:33.585Z,99458.03
2023-05-24T00:41:01.873Z,99466.31
2023-05-24T00:43:29.874Z,99457.56
2023-05-24T00:46:28.476Z,99476.25
2023-05-24T00:48:56.562Z,99468.53
2023-05-24T00:51:31.046Z,99452.06
2023-05-24T00:53:58.904Z,99434.38
2023-05-24T00:56:27.184Z,99455.78
2023-05-24T00:58:57.817Z,99452.56
2023-05-24T01:01:26.315Z,99470.00
2023-05-24T01:03:54.820Z,99443.78
2023-05-24T01:06:23.806Z,99445.56
2023-05-24T01:09:12.371Z,99457.28
2023-05-24T01:15:28.977Z,99449.56
2023-05-24T01:18:13.211Z,99455.03
2023-05-24T01:20:42.522Z,99442.31
2023-05-24T01:23:46.404Z,99435.09
2023-05-24T01:26:55.694Z,99418.13
2023-05-24T01:29:24.129Z,99427.63
2023-05-24T01:32:02.212Z,99409.66
2023-05-24T01:34:30.434Z,99414.88
2023-05-24T01:36:58.256Z,99430.09
2023-05-24T01:39:29.040Z,99426.13
2023-05-24T01:45:11.905Z,99433.59
2023-05-24T01:48:06.180Z,99418.09
2023-05-24T01:50:39.269Z,99430.84
2023-05-24T01:53:14.331Z,99436.81
2023-05-24T01:55:43.461Z,99409.41
2023-05-24T01:58:13.221Z,99426.59
2023-05-24T02:00:42.272Z,99445.78
2023-05-24T02:03:10.498Z,99412.63
2023-05-24T02:05:39.530Z,99433.81
2023-05-24T02:08:07.205Z,99420.06
2023-05-24T02:10:34.812Z,99419.09
2023-05-24T02:13:05.034Z,99431.81
2023-05-24T02:15:32.727Z,99413.84
2023-05-24T02:18:01.656Z,99414.59
2023-05-24T02:20:31.460Z,99418.13
2023-05-24T02:23:00.286Z,99420.63
2023-05-24T02:25:28.032Z,99401.41
2023-05-24T02:28:00.161Z,99434.81
2023-05-24T02:30:27.883Z,99408.63
2023-05-24T02:36:23.919Z,99428.84
2023-05-24T02:38:52.162Z,99429.81
2023-05-24T02:41:20.481Z,99406.66
2023-05-24T02:43:48.587Z,99428.63
2023-05-24T02:46:17.812Z,99412.13
2023-05-24T02:48:45.649Z,99423.09
2023-05-24T02:51:12.983Z,99425.38
2023-05-24T02:53:43.830Z,99437.34
2023-05-24T02:56:11.795Z,99427.38
2023-05-24T02:58:40.979Z,99418.63
2023-05-24T03:01:08.921Z,99439.34
2023-05-24T03:03:36.414Z,99433.06
2023-05-24T03:06:03.927Z,99429.38
2023-05-24T03:08:31.509Z,99438.59
2023-05-24T03:10:58.960Z,99424.63
2023-05-24T03:13:26.256Z,99410.16
2023-05-24T03:15:53.517Z,99402.47
2023-05-24T03:18:20.962Z,99414.38
2023-05-24T03:20:51.625Z,99416.88
2023-05-24T03:23:19.149Z,99442.84
2023-05-24T03:25:46.703Z,99412.13
2023-05-24T03:28:15.747Z,99433.84
2023-05-24T03:30:45.579Z,99402.16
2023-05-24T03:33:13.147Z,99420.09
2023-05-24T03:35:40.741Z,99412.66
2023-05-24T03:38:08.229Z,99411.38
2023-05-24T03:40:35.880Z,99418.13
2023-05-24T03:43:04.470Z,99421.38
2023-05-24T03:45:38.998Z,99407.44
2023-05-24T03:48:10.010Z,99414.88
2023-05-24T03:50:37.583Z,99398.44
2023-05-24T03:53:05.337Z,99402.66
2023-05-24T03:55:43.538Z,99387.97
2023-05-24T03:59:10.800Z,99415.16
2023-05-24T04:01:40.685Z,99377.25
2023-05-24T04:04:08.089Z,99403.94
2023-05-24T04:06:37.053Z,99377.50
2023-05-24T04:09:08.693Z,99370.75
2023-05-24T04:11:36.514Z,99408.66
2023-05-24T04:14:07.492Z,99362.03
2023-05-24T04:16:35.832Z,99345.59
2023-05-24T04:19:06.259Z,99357.34
2023-05-24T04:21:35.449Z,99338.63
2023-05-24T04:24:05.033Z,99361.31
2023-05-24T04:26:35.640Z,99338.13
2023-05-24T04:29:06.725Z,99347.09
2023-05-24T04:32:34.584Z,99372.50
2023-05-24T04:35:05.910Z,99370.28
2023-05-24T04:37:35.009Z,99334.66
2023-05-24T04:40:07.100Z,99378.53
2023-05-24T04:42:36.259Z,99335.88
2023-05-24T04:45:04.477Z,99329.88
2023-05-24T04:47:33.388Z,99338.59
2023-05-24T04:50:02.951Z,99348.78
2023-05-24T04:52:36.804Z,99347.50
2023-05-24T04:55:07.701Z,99365.13
2023-05-24T04:57:36.338Z,99352.34
2023-05-24T05:00:11.479Z,99336.38
2023-05-24T05:02:39.426Z,99344.19
2023-05-24T05:05:10.828Z,99308.88
2023-05-24T05:07:43.505Z,99310.97
2023-05-24T05:10:11.619Z,99329.13
2023-05-24T05:12:39.306Z,99314.91
2023-05-24T05:15:08.065Z,99312.66
2023-05-24T05:17:35.703Z,99328.00
2023-05-24T05:20:05.042Z,99319.16
2023-05-24T05:22:32.803Z,99309.97
2023-05-24T05:25:04.347Z,99282.31
2023-05-24T05:28:02.796Z,99317.56
2023-05-24T05:30:30.451Z,99311.53
2023-05-24T05:32:58.437Z,99292.47
2023-05-24T05:35:27.983Z,99279.09
2023-05-24T05:37:55.534Z,99305.50
2023-05-24T05:40:25.164Z,99310.09
2023-05-24T05:42:52.844Z,99301.88
2023-05-24T05:45:20.253Z,99292.53
2023-05-24T05:47:51.244Z,99300.78
2023-05-24T05:50:39.197Z,99301.41
2023-05-24T05:53:06.931Z,99289.38
2023-05-24T05:55:34.530Z,99245.66
2023-05-24T05:58:02.002Z,99276.44
2023-05-24T06:00:38.718Z,99284.09
2023-05-24T06:03:06.650Z,99261.97
2023-05-24T06:05:34.250Z,99263.97
2023-05-24T06:08:01.813Z,99270.59
2023-05-24T06:10:29.458Z,99246.97
2023-05-24T06:12:57.240Z,99279.97
2023-05-24T06:15:24.973Z,99279.84
2023-05-24T06:18:13.904Z,99294.38
2023-05-24T06:20:41.745Z,99291.53
2023-05-24T06:26:18.588Z,99269.25
2023-05-24T06:32:12.627Z,99270.91
2023-05-24T06:39:07.137Z,99283.44
2023-05-24T06:48:35.621Z,99199.19
2023-05-24T06:51:11.315Z,99259.41
2023-05-24T06:53:43.189Z,99217.69
2023-05-24T06:56:11.349Z,99269.84
2023-05-24T06:59:18.565Z,99255.91
2023-05-24T07:02:03.432Z,99210.88
2023-05-24T07:05:07.367Z,99255.81
2023-05-24T07:16:08.255Z,99259.78
2023-05-24T07:31:42.386Z,99249.00
2023-05-24T07:34:14.599Z,99273.69
2023-05-24T07:40:03.377Z,99217.38
2023-05-24T07:42:36.359Z,99244.44
2023-05-24T07:45:14.774Z,99242.84
2023-05-24T07:47:50.351Z,99227.53
2023-05-24T07:50:24.973Z,99235.03
2023-05-24T07:52:53.650Z,99256.28
2023-05-24T07:55:33.415Z,99231.06
2023-05-24T07:58:06.989Z,99235.63
2023-05-24T08:00:42.424Z,99221.66
2023-05-24T08:03:27.475Z,99237.50
2023-05-24T08:06:09.302Z,99237.06
2023-05-24T08:11:48.650Z,99203.19
2023-05-24T08:14:27.572Z,99223.41
2023-05-24T08:16:58.527Z,99244.84
2023-05-24T08:19:41.542Z,99233.75
2023-05-24T08:22:32.536Z,99203.47
2023-05-24T08:25:15.365Z,99247.16
2023-05-24T08:27:49.813Z,99242.59
2023-05-24T08:30:27.793Z,99254.19
2023-05-24T08:33:02.760Z,99237.97
2023-05-24T08:39:07.023Z,99241.88
2023-05-24T08:42:07.301Z,99235.22
2023-05-24T08:48:54.239Z,99260.50
2023-05-24T08:51:26.006Z,99256.94
2023-05-24T08:53:59.367Z,99251.75
2023-05-24T08:56:31.356Z,99243.59
2023-05-24T08:59:02.289Z,99251.16
2023-05-24T09:15:17.038Z,99253.59
2023-05-24T09:20:50.007Z,99251.31
2023-05-24T09:23:30.482Z,99260.41
2023-05-24T09:26:14.007Z,99230.69
2023-05-24T09:29:03.339Z,99268.56
2023-05-24T09:31:39.786Z,99238.47
2023-05-24T09:34:33.403Z,99281.38
2023-05-24T09:37:08.656Z,99257.41
2023-05-24T09:39:54.219Z,99212.09
2023-05-24T09:42:32.399Z,99238.84
2023-05-24T09:45:15.710Z,99223.91
2023-05-24T09:48:04.746Z,99250.81
2023-05-24T09:54:15.946Z,99288.47
2023-05-24T09:56:50.568Z,99265.00
2023-05-24T09:59:21.360Z,99242.59
2023-05-24T10:01:57.756Z,99272.72
2023-05-24T10:04:36.586Z,99259.94
2023-05-24T10:07:04.842Z,99286.59
2023-05-24T10:09:40.959Z,99301.47
2023-05-24T10:12:34.391Z,99277.00
2023-05-24T10:15:33.720Z,99273.09
2023-05-24T10:18:12.966Z,99266.44
2023-05-24T10:20:45.137Z,99258.63
2023-05-24T10:24:13.891Z,99314.94
2023-05-24T10:26:44.714Z,99272.00
2023-05-24T10:29:44.064Z,99251.63
2023-05-24T10:35:45.229Z,99279.28
2023-05-24T10:39:00.465Z,99273.41
2023-05-24T10:41:29.997Z,99288.22
2023-05-24T10:44:08.460Z,99254.03
2023-05-24T10:47:13.557Z,99296.63
2023-05-24T10:49:53.733Z,99275.16
2023-05-24T10:52:48.314Z,99277.69
2023-05-24T10:55:22.622Z,99271.41
2023-05-24T10:58:00.400Z,99256.28
2023-05-24T11:03:51.076Z,99287.75
2023-05-24T11:06:19.399Z,99277.56
2023-05-24T11:08:46.885Z,99281.41
2023-05-24T11:11:29.444Z,99300.44
2023-05-24T11:14:04.539Z,99291.00
2023-05-24T11:16:39.551Z,99269.03
2023-05-24T11:22:48.498Z,99275.91
2023-05-24T11:25:16.582Z,99292.53
2023-05-24T11:27:48.779Z,99288.84
2023-05-24T11:30:20.516Z,99254.06
2023-05-24T11:32:58.893Z,99253.81
2023-05-24T11:35:30.584Z,99266.06
2023-05-24T11:38:01.698Z,99267.53
2023-05-24T11:40:31.802Z,99223.03
2023-05-24T11:43:07.896Z,99241.81
2023-05-24T11:45:46.987Z,99247.59
2023-05-24T11:48:20.886Z,99263.31
2023-05-24T11:51:18.187Z,99258.50
2023-05-24T11:53:47.731Z,99279.78
2023-05-24T11:56:30.940Z,99252.88
2023-05-24T12:03:13.047Z,99260.13
2023-05-24T12:09:41.125Z,99219.75
2023-05-24T12:12:45.665Z,99243.28
2023-05-24T12:22:00.615Z,99226.91
2023-05-24T12:24:36.532Z,99234.94
2023-05-24T12:27:12.196Z,99246.22
2023-05-24T12:29:45.922Z,99230.25
2023-05-24T12:36:37.515Z,99246.84
2023-05-24T12:39:31.812Z,99254.50
2023-05-24T12:42:30.265Z,99231.91
2023-05-24T12:47:56.095Z,99234.84
2023-05-24T12:50:26.215Z,99263.28
2023-05-24T12:52:54.449Z,99253.34
2023-05-24T12:55:41.775Z,99265.88
2023-05-24T12:58:17.180Z,99243.97
2023-05-24T13:00:50.577Z,99305.56
2023-05-24T13:03:18.894Z,99253.88
2023-05-24T13:05:47.608Z,99248.44
2023-05-24T13:08:19.729Z,99236.88
2023-05-24T13:14:55.923Z,99287.47
2023-05-24T13:17:26.886Z,99291.75
2023-05-24T13:19:58.986Z,99294.50
2023-05-24T13:22:27.398Z,99283.56
2023-05-24T13:25:58.210Z,99256.03
2023-05-24T13:28:25.931Z,99282.28
2023-05-24T13:30:53.917Z,99258.78
2023-05-24T13:33:23.839Z,99290.44
2023-05-24T13:35:59.478Z,99287.25
2023-05-24T13:38:37.622Z,99281.88
2023-05-24T13:44:52.722Z,99289.63
2023-05-24T15:57:54.764Z,99335.69
2023-05-24T20:58:42.158Z,99450.78
2023-05-24T21:01:13.056Z,99458.25
2023-05-24T21:03:40.956Z,99456.47
2023-05-24T21:06:49.972Z,99446.25
2023-05-24T21:13:02.038Z,99472.44
2023-05-24T21:15:30.108Z,99494.84
2023-05-24T21:18:01.891Z,99503.59
2023-05-24T21:20:36.650Z,99473.41
2023-05-24T21:23:08.757Z,99602.16
2023-05-24T21:25:37.039Z,99628.78
2023-05-24T21:28:10.226Z,99598.56
2023-05-24T21:31:05.676Z,99623.81
2023-05-24T21:33:34.435Z,99579.78
2023-05-24T21:40:15.038Z,99548.03
2023-05-24T21:42:45.960Z,99551.53
2023-05-24T21:45:13.690Z,99538.78
2023-05-24T21:47:42.423Z,99530.94
2023-05-24T21:53:35.991Z,99511.97
2023-05-24T21:56:10.082Z,99538.69
2023-05-24T22:01:41.098Z,99502.16
2023-05-24T22:04:45.286Z,99505.59
2023-05-24T22:08:31.115Z,99490.66
2023-05-24T22:11:46.456Z,99519.72
2023-05-24T22:15:36.884Z,99513.53
2023-05-24T22:29:04.134Z,99484.88
2023-05-24T22:31:49.630Z,99474.34
2023-05-24T22:34:35.125Z,99477.91
2023-05-24T22:37:33.196Z,99468.25
2023-05-24T22:40:21.577Z,99475.50
2023-05-24T22:46:11.831Z,99512.19
2023-05-24T22:49:18.889Z,99506.44
2023-05-24T22:51:51.688Z,99490.63
2023-05-24T23:06:40.521Z,99476.25
2023-05-24T23:09:13.073Z,99459.31
2023-05-24T23:26:14.592Z,99504.25
2023-05-24T23:43:36.889Z,99565.16
2023-05-24T23:50:22.266Z,99499.41
2023-05-24T23:56:29.922Z,99534.97
2023-05-24T23:59:09.149Z,99504.25
